sensor_id;sensor_type;location;lat;lon;timestamp;temperature;humidity
18839;DHT22;9548;56.920;14.804;2022-08-23T00:02:20;12.90;99.90
18839;DHT22;9548;56.920;14.804;2022-08-23T00:04:47;12.90;99.90
18839;DHT22;9548;56.920;14.804;2022-08-23T00:07:15;12.90;99.90
18839;DHT22;9548;56.920;14.804;2022-08-23T00:09:42;12.90;99.90
18839;DHT22;9548;56.920;14.804;2022-08-23T00:12:14;12.80;99.90
18839;DHT22;9548;56.920;14.804;2022-08-23T00:14:44;12.80;99.90
18839;DHT22;9548;56.920;14.804;2022-08-23T00:17:11;12.80;99.90
18839;DHT22;9548;56.920;14.804;2022-08-23T00:19:39;12.70;99.90
18839;DHT22;9548;56.920;14.804;2022-08-23T00:22:07;12.70;99.90
18839;DHT22;9548;56.920;14.804;2022-08-23T00:24:36;12.70;99.90
18839;DHT22;9548;56.920;14.804;2022-08-23T00:27:05;12.70;99.90
18839;DHT22;9548;56.920;14.804;2022-08-23T00:29:36;12.70;99.90
18839;DHT22;9548;56.920;14.804;2022-08-23T00:32:05;12.70;99.90
18839;DHT22;9548;56.920;14.804;2022-08-23T00:34:33;12.60;99.90
18839;DHT22;9548;56.920;14.804;2022-08-23T00:37:01;12.70;99.90
18839;DHT22;9548;56.920;14.804;2022-08-23T00:39:28;12.70;99.90
18839;DHT22;9548;56.920;14.804;2022-08-23T00:41:57;12.70;99.90
18839;DHT22;9548;56.920;14.804;2022-08-23T00:44:27;12.80;99.90
18839;DHT22;9548;56.920;14.804;2022-08-23T00:47:15;12.80;99.90
18839;DHT22;9548;56.920;14.804;2022-08-23T00:50:08;12.70;99.90
18839;DHT22;9548;56.920;14.804;2022-08-23T00:52:43;12.70;99.90
18839;DHT22;9548;56.920;14.804;2022-08-23T00:55:12;12.70;99.90
18839;DHT22;9548;56.920;14.804;2022-08-23T00:57:41;12.60;99.90
18839;DHT22;9548;56.920;14.804;2022-08-23T01:00:10;12.60;99.90
18839;DHT22;9548;56.920;14.804;2022-08-23T01:02:40;12.60;99.90
18839;DHT22;9548;56.920;14.804;2022-08-23T01:05:08;12.50;99.90
18839;DHT22;9548;56.920;14.804;2022-08-23T01:07:44;12.50;99.90
18839;DHT22;9548;56.920;14.804;2022-08-23T01:10:17;12.50;99.90
18839;DHT22;9548;56.920;14.804;2022-08-23T01:12:51;12.60;99.90
18839;DHT22;9548;56.920;14.804;2022-08-23T01:15:23;12.60;99.90
18839;DHT22;9548;56.920;14.804;2022-08-23T01:17:57;12.60;99.90
18839;DHT22;9548;56.920;14.804;2022-08-23T01:20:30;12.60;99.90
18839;DHT22;9548;56.920;14.804;2022-08-23T01:23:01;12.60;99.90
18839;DHT22;9548;56.920;14.804;2022-08-23T01:25:31;12.60;99.90
18839;DHT22;9548;56.920;14.804;2022-08-23T01:27:59;12.50;99.90
18839;DHT22;9548;56.920;14.804;2022-08-23T01:30:31;12.50;99.90
18839;DHT22;9548;56.920;14.804;2022-08-23T01:33:00;12.50;99.90
18839;DHT22;9548;56.920;14.804;2022-08-23T01:35:34;12.60;99.90
18839;DHT22;9548;56.920;14.804;2022-08-23T01:38:02;12.70;99.90
18839;DHT22;9548;56.920;14.804;2022-08-23T01:40:31;12.70;99.90
18839;DHT22;9548;56.920;14.804;2022-08-23T01:42:59;12.80;99.90
18839;DHT22;9548;56.920;14.804;2022-08-23T01:45:27;12.80;99.90
18839;DHT22;9548;56.920;14.804;2022-08-23T01:47:54;12.80;99.90
18839;DHT22;9548;56.920;14.804;2022-08-23T01:50:23;12.80;99.90
18839;DHT22;9548;56.920;14.804;2022-08-23T01:52:50;12.70;99.90
18839;DHT22;9548;56.920;14.804;2022-08-23T01:55:18;12.60;99.90
18839;DHT22;9548;56.920;14.804;2022-08-23T01:57:49;12.60;99.90
18839;DHT22;9548;56.920;14.804;2022-08-23T02:00:17;12.50;99.90
18839;DHT22;9548;56.920;14.804;2022-08-23T02:02:45;12.50;99.90
18839;DHT22;9548;56.920;14.804;2022-08-23T02:05:12;12.40;99.90
18839;DHT22;9548;56.920;14.804;2022-08-23T02:07:40;12.30;99.90
18839;DHT22;9548;56.920;14.804;2022-08-23T02:10:07;12.20;99.90
18839;DHT22;9548;56.920;14.804;2022-08-23T02:12:35;12.20;99.90
18839;DHT22;9548;56.920;14.804;2022-08-23T02:15:05;12.20;99.90
18839;DHT22;9548;56.920;14.804;2022-08-23T02:17:32;12.30;99.90
18839;DHT22;9548;56.920;14.804;2022-08-23T02:20:00;12.30;99.90
18839;DHT22;9548;56.920;14.804;2022-08-23T02:22:29;12.30;99.90
18839;DHT22;9548;56.920;14.804;2022-08-23T02:24:56;12.30;99.90
18839;DHT22;9548;56.920;14.804;2022-08-23T02:27:23;12.30;99.90
18839;DHT22;9548;56.920;14.804;2022-08-23T02:29:50;12.20;99.90
18839;DHT22;9548;56.920;14.804;2022-08-23T02:32:19;12.20;99.90
18839;DHT22;9548;56.920;14.804;2022-08-23T02:34:46;12.10;99.90
18839;DHT22;9548;56.920;14.804;2022-08-23T02:37:13;12.10;99.90
18839;DHT22;9548;56.920;14.804;2022-08-23T02:39:41;12.20;99.90
18839;DHT22;9548;56.920;14.804;2022-08-23T02:42:08;12.20;99.90
18839;DHT22;9548;56.920;14.804;2022-08-23T02:44:36;12.20;99.90
18839;DHT22;9548;56.920;14.804;2022-08-23T02:47:05;12.20;99.90
18839;DHT22;9548;56.920;14.804;2022-08-23T02:49:35;12.20;99.90
18839;DHT22;9548;56.920;14.804;2022-08-23T02:52:03;12.20;99.90
18839;DHT22;9548;56.920;14.804;2022-08-23T02:54:31;12.20;99.90
18839;DHT22;9548;56.920;14.804;2022-08-23T02:56:58;12.20;99.90
18839;DHT22;9548;56.920;14.804;2022-08-23T02:59:24;12.20;99.90
18839;DHT22;9548;56.920;14.804;2022-08-23T03:01:51;12.20;99.90
18839;DHT22;9548;56.920;14.804;2022-08-23T03:04:18;12.20;99.90
18839;DHT22;9548;56.920;14.804;2022-08-23T03:06:47;12.20;99.90
18839;DHT22;9548;56.920;14.804;2022-08-23T03:09:14;12.20;99.90
18839;DHT22;9548;56.920;14.804;2022-08-23T03:11:43;12.30;99.90
18839;DHT22;9548;56.920;14.804;2022-08-23T03:14:10;12.30;99.90
18839;DHT22;9548;56.920;14.804;2022-08-23T03:16:37;12.30;99.90
18839;DHT22;9548;56.920;14.804;2022-08-23T03:19:05;12.30;99.90
18839;DHT22;9548;56.920;14.804;2022-08-23T03:21:32;12.30;99.90
18839;DHT22;9548;56.920;14.804;2022-08-23T03:24:01;12.30;99.90
18839;DHT22;9548;56.920;14.804;2022-08-23T03:26:28;12.30;99.90
18839;DHT22;9548;56.920;14.804;2022-08-23T03:28:55;12.30;99.90
18839;DHT22;9548;56.920;14.804;2022-08-23T03:31:22;12.30;99.90
18839;DHT22;9548;56.920;14.804;2022-08-23T03:33:49;12.30;99.90
18839;DHT22;9548;56.920;14.804;2022-08-23T03:36:16;12.30;99.90
18839;DHT22;9548;56.920;14.804;2022-08-23T03:38:43;12.20;99.90
18839;DHT22;9548;56.920;14.804;2022-08-23T03:41:11;12.30;99.90
18839;DHT22;9548;56.920;14.804;2022-08-23T03:43:38;12.30;99.90
18839;DHT22;9548;56.920;14.804;2022-08-23T03:46:06;12.30;99.90
18839;DHT22;9548;56.920;14.804;2022-08-23T03:48:33;12.30;99.90
18839;DHT22;9548;56.920;14.804;2022-08-23T03:51:00;12.40;99.90
18839;DHT22;9548;56.920;14.804;2022-08-23T03:53:28;12.30;99.90
18839;DHT22;9548;56.920;14.804;2022-08-23T03:55:55;12.30;99.90
18839;DHT22;9548;56.920;14.804;2022-08-23T03:58:24;12.30;99.90
18839;DHT22;9548;56.920;14.804;2022-08-23T04:00:53;12.30;99.90
18839;DHT22;9548;56.920;14.804;2022-08-23T04:03:20;12.30;99.90
18839;DHT22;9548;56.920;14.804;2022-08-23T04:05:47;12.30;99.90
18839;DHT22;9548;56.920;14.804;2022-08-23T04:08:14;12.30;99.90
18839;DHT22;9548;56.920;14.804;2022-08-23T04:10:41;12.30;99.90
18839;DHT22;9548;56.920;14.804;2022-08-23T04:13:08;12.30;99.90
18839;DHT22;9548;56.920;14.804;2022-08-23T04:15:37;12.50;99.90
18839;DHT22;9548;56.920;14.804;2022-08-23T04:18:04;12.60;99.90
18839;DHT22;9548;56.920;14.804;2022-08-23T04:20:31;12.60;99.90
18839;DHT22;9548;56.920;14.804;2022-08-23T04:22:59;12.70;99.90
18839;DHT22;9548;56.920;14.804;2022-08-23T04:25:26;12.70;99.90
18839;DHT22;9548;56.920;14.804;2022-08-23T04:27:53;12.70;99.90
18839;DHT22;9548;56.920;14.804;2022-08-23T04:30:20;12.80;99.90
18839;DHT22;9548;56.920;14.804;2022-08-23T04:32:48;12.80;99.90
18839;DHT22;9548;56.920;14.804;2022-08-23T04:35:16;12.90;99.90
18839;DHT22;9548;56.920;14.804;2022-08-23T04:37:42;13.00;99.90
18839;DHT22;9548;56.920;14.804;2022-08-23T04:40:11;13.00;99.90
18839;DHT22;9548;56.920;14.804;2022-08-23T04:42:56;13.10;99.90
18839;DHT22;9548;56.920;14.804;2022-08-23T04:45:23;13.20;99.90
18839;DHT22;9548;56.920;14.804;2022-08-23T04:47:53;13.30;99.90
18839;DHT22;9548;56.920;14.804;2022-08-23T04:50:20;13.40;99.90
18839;DHT22;9548;56.920;14.804;2022-08-23T04:52:47;13.50;99.90
18839;DHT22;9548;56.920;14.804;2022-08-23T04:55:14;13.70;99.90
18839;DHT22;9548;56.920;14.804;2022-08-23T04:57:42;13.80;99.90
18839;DHT22;9548;56.920;14.804;2022-08-23T05:00:11;13.80;99.90
18839;DHT22;9548;56.920;14.804;2022-08-23T05:02:38;13.90;99.90
18839;DHT22;9548;56.920;14.804;2022-08-23T05:05:08;14.00;99.90
18839;DHT22;9548;56.920;14.804;2022-08-23T05:07:37;14.10;99.90
18839;DHT22;9548;56.920;14.804;2022-08-23T05:10:05;14.20;99.90
18839;DHT22;9548;56.920;14.804;2022-08-23T05:12:32;14.30;99.90
18839;DHT22;9548;56.920;14.804;2022-08-23T05:14:59;14.40;99.90
18839;DHT22;9548;56.920;14.804;2022-08-23T05:17:26;14.60;99.90
18839;DHT22;9548;56.920;14.804;2022-08-23T05:19:53;14.70;99.90
18839;DHT22;9548;56.920;14.804;2022-08-23T05:22:22;14.80;99.90
18839;DHT22;9548;56.920;14.804;2022-08-23T05:24:49;14.80;99.90
18839;DHT22;9548;56.920;14.804;2022-08-23T05:27:16;14.90;99.90
18839;DHT22;9548;56.920;14.804;2022-08-23T05:29:43;15.00;99.90
18839;DHT22;9548;56.920;14.804;2022-08-23T05:32:10;15.10;99.90
18839;DHT22;9548;56.920;14.804;2022-08-23T05:34:38;15.20;99.90
18839;DHT22;9548;56.920;14.804;2022-08-23T05:37:05;15.30;99.90
18839;DHT22;9548;56.920;14.804;2022-08-23T05:39:33;15.40;99.90
18839;DHT22;9548;56.920;14.804;2022-08-23T05:42:00;15.40;99.90
18839;DHT22;9548;56.920;14.804;2022-08-23T05:44:27;15.50;99.90
18839;DHT22;9548;56.920;14.804;2022-08-23T05:46:54;15.50;99.90
18839;DHT22;9548;56.920;14.804;2022-08-23T05:49:22;15.60;99.90
18839;DHT22;9548;56.920;14.804;2022-08-23T05:51:49;15.70;99.90
18839;DHT22;9548;56.920;14.804;2022-08-23T05:54:16;15.70;99.90
18839;DHT22;9548;56.920;14.804;2022-08-23T05:56:44;15.80;99.90
18839;DHT22;9548;56.920;14.804;2022-08-23T05:59:13;15.90;99.90
18839;DHT22;9548;56.920;14.804;2022-08-23T06:01:42;15.90;99.90
18839;DHT22;9548;56.920;14.804;2022-08-23T06:04:10;15.90;99.90
18839;DHT22;9548;56.920;14.804;2022-08-23T06:06:39;16.00;99.90
18839;DHT22;9548;56.920;14.804;2022-08-23T06:09:08;16.00;99.90
18839;DHT22;9548;56.920;14.804;2022-08-23T06:11:35;16.00;99.90
18839;DHT22;9548;56.920;14.804;2022-08-23T06:14:06;16.10;99.90
18839;DHT22;9548;56.920;14.804;2022-08-23T06:16:36;16.20;99.90
18839;DHT22;9548;56.920;14.804;2022-08-23T06:19:05;16.20;99.90
18839;DHT22;9548;56.920;14.804;2022-08-23T06:21:32;16.30;99.90
18839;DHT22;9548;56.920;14.804;2022-08-23T06:24:00;16.40;99.90
18839;DHT22;9548;56.920;14.804;2022-08-23T06:26:29;16.50;99.90
18839;DHT22;9548;56.920;14.804;2022-08-23T06:28:58;16.60;99.90
18839;DHT22;9548;56.920;14.804;2022-08-23T06:31:29;16.70;99.90
18839;DHT22;9548;56.920;14.804;2022-08-23T06:34:16;16.80;99.90
18839;DHT22;9548;56.920;14.804;2022-08-23T06:36:44;17.00;99.90
18839;DHT22;9548;56.920;14.804;2022-08-23T06:39:14;17.10;99.90
18839;DHT22;9548;56.920;14.804;2022-08-23T06:41:41;17.20;99.90
18839;DHT22;9548;56.920;14.804;2022-08-23T06:44:08;17.30;99.90
18839;DHT22;9548;56.920;14.804;2022-08-23T06:46:37;17.40;99.90
18839;DHT22;9548;56.920;14.804;2022-08-23T06:49:06;17.60;99.90
18839;DHT22;9548;56.920;14.804;2022-08-23T06:51:35;17.80;99.90
18839;DHT22;9548;56.920;14.804;2022-08-23T06:54:05;17.90;99.90
18839;DHT22;9548;56.920;14.804;2022-08-23T06:56:33;18.00;99.90
18839;DHT22;9548;56.920;14.804;2022-08-23T06:59:01;18.20;99.90
18839;DHT22;9548;56.920;14.804;2022-08-23T07:01:34;18.30;99.90
18839;DHT22;9548;56.920;14.804;2022-08-23T07:04:05;18.40;99.90
18839;DHT22;9548;56.920;14.804;2022-08-23T07:06:32;18.40;99.90
18839;DHT22;9548;56.920;14.804;2022-08-23T07:09:00;18.40;99.90
18839;DHT22;9548;56.920;14.804;2022-08-23T07:11:27;18.50;99.90
18839;DHT22;9548;56.920;14.804;2022-08-23T07:13:56;18.50;99.90
18839;DHT22;9548;56.920;14.804;2022-08-23T07:16:24;18.60;99.90
18839;DHT22;9548;56.920;14.804;2022-08-23T07:18:51;18.80;99.90
18839;DHT22;9548;56.920;14.804;2022-08-23T07:21:21;18.80;99.90
18839;DHT22;9548;56.920;14.804;2022-08-23T07:23:48;18.90;99.90
18839;DHT22;9548;56.920;14.804;2022-08-23T07:26:16;18.90;99.90
18839;DHT22;9548;56.920;14.804;2022-08-23T07:28:43;19.00;99.90
18839;DHT22;9548;56.920;14.804;2022-08-23T07:31:19;19.10;99.90
18839;DHT22;9548;56.920;14.804;2022-08-23T07:33:47;19.30;99.90
18839;DHT22;9548;56.920;14.804;2022-08-23T07:36:16;19.50;99.90
18839;DHT22;9548;56.920;14.804;2022-08-23T07:38:45;19.60;99.90
18839;DHT22;9548;56.920;14.804;2022-08-23T07:41:13;19.80;99.90
18839;DHT22;9548;56.920;14.804;2022-08-23T07:43:40;19.90;99.90
18839;DHT22;9548;56.920;14.804;2022-08-23T07:46:08;20.00;99.90
18839;DHT22;9548;56.920;14.804;2022-08-23T07:48:36;20.20;99.90
18839;DHT22;9548;56.920;14.804;2022-08-23T07:51:06;20.30;99.90
18839;DHT22;9548;56.920;14.804;2022-08-23T07:53:34;20.40;99.90
18839;DHT22;9548;56.920;14.804;2022-08-23T07:56:05;20.50;99.90
18839;DHT22;9548;56.920;14.804;2022-08-23T07:58:33;20.60;99.90
18839;DHT22;9548;56.920;14.804;2022-08-23T08:01:08;20.60;99.90
18839;DHT22;9548;56.920;14.804;2022-08-23T08:03:37;20.70;99.90
18839;DHT22;9548;56.920;14.804;2022-08-23T08:06:09;20.70;99.90
18839;DHT22;9548;56.920;14.804;2022-08-23T08:08:37;20.90;99.90
18839;DHT22;9548;56.920;14.804;2022-08-23T08:11:07;21.00;99.90
18839;DHT22;9548;56.920;14.804;2022-08-23T08:13:37;21.10;99.90
18839;DHT22;9548;56.920;14.804;2022-08-23T08:16:05;21.30;99.90
18839;DHT22;9548;56.920;14.804;2022-08-23T08:18:33;21.40;99.90
18839;DHT22;9548;56.920;14.804;2022-08-23T08:21:00;21.50;99.90
18839;DHT22;9548;56.920;14.804;2022-08-23T08:23:27;21.60;99.90
18839;DHT22;9548;56.920;14.804;2022-08-23T08:25:59;21.70;99.90
18839;DHT22;9548;56.920;14.804;2022-08-23T08:28:28;21.80;99.90
18839;DHT22;9548;56.920;14.804;2022-08-23T08:30:55;21.90;99.90
18839;DHT22;9548;56.920;14.804;2022-08-23T08:33:23;22.00;99.90
18839;DHT22;9548;56.920;14.804;2022-08-23T08:35:51;22.10;99.90
18839;DHT22;9548;56.920;14.804;2022-08-23T08:38:18;22.10;99.90
18839;DHT22;9548;56.920;14.804;2022-08-23T08:40:49;22.20;99.90
18839;DHT22;9548;56.920;14.804;2022-08-23T08:43:29;22.20;99.90
18839;DHT22;9548;56.920;14.804;2022-08-23T08:46:03;22.20;99.90
18839;DHT22;9548;56.920;14.804;2022-08-23T08:48:38;22.20;99.90
18839;DHT22;9548;56.920;14.804;2022-08-23T08:51:15;22.30;99.90
18839;DHT22;9548;56.920;14.804;2022-08-23T08:53:47;22.40;99.90
18839;DHT22;9548;56.920;14.804;2022-08-23T08:56:19;22.20;99.90
18839;DHT22;9548;56.920;14.804;2022-08-23T08:58:50;22.10;99.90
18839;DHT22;9548;56.920;14.804;2022-08-23T09:01:19;22.00;99.90
18839;DHT22;9548;56.920;14.804;2022-08-23T09:03:47;22.00;99.90
18839;DHT22;9548;56.920;14.804;2022-08-23T09:06:21;21.90;99.90
18839;DHT22;9548;56.920;14.804;2022-08-23T09:09:03;21.90;99.90
18839;DHT22;9548;56.920;14.804;2022-08-23T09:11:43;22.00;99.90
18839;DHT22;9548;56.920;14.804;2022-08-23T09:14:30;22.00;99.90
18839;DHT22;9548;56.920;14.804;2022-08-23T09:17:04;21.90;99.90
18839;DHT22;9548;56.920;14.804;2022-08-23T09:19:34;21.90;99.90
18839;DHT22;9548;56.920;14.804;2022-08-23T09:22:06;22.00;99.90
18839;DHT22;9548;56.920;14.804;2022-08-23T09:24:35;22.10;99.90
18839;DHT22;9548;56.920;14.804;2022-08-23T09:27:02;22.00;99.90
18839;DHT22;9548;56.920;14.804;2022-08-23T09:29:32;22.10;99.90
18839;DHT22;9548;56.920;14.804;2022-08-23T09:32:01;22.00;99.90
18839;DHT22;9548;56.920;14.804;2022-08-23T09:34:40;22.00;99.90
18839;DHT22;9548;56.920;14.804;2022-08-23T09:37:15;22.00;99.90
18839;DHT22;9548;56.920;14.804;2022-08-23T09:39:46;22.10;99.90
18839;DHT22;9548;56.920;14.804;2022-08-23T09:42:26;22.10;99.90
18839;DHT22;9548;56.920;14.804;2022-08-23T09:44:56;22.20;99.90
18839;DHT22;9548;56.920;14.804;2022-08-23T09:47:31;22.20;99.90
18839;DHT22;9548;56.920;14.804;2022-08-23T09:50:07;22.20;99.90
18839;DHT22;9548;56.920;14.804;2022-08-23T09:52:36;22.30;99.90
18839;DHT22;9548;56.920;14.804;2022-08-23T09:55:07;22.30;99.90
18839;DHT22;9548;56.920;14.804;2022-08-23T09:57:35;22.30;99.90
18839;DHT22;9548;56.920;14.804;2022-08-23T10:00:22;22.40;99.90
18839;DHT22;9548;56.920;14.804;2022-08-23T10:02:50;22.40;99.90
18839;DHT22;9548;56.920;14.804;2022-08-23T10:05:29;22.50;99.90
18839;DHT22;9548;56.920;14.804;2022-08-23T10:08:02;22.50;99.90
18839;DHT22;9548;56.920;14.804;2022-08-23T10:10:33;22.40;99.90
18839;DHT22;9548;56.920;14.804;2022-08-23T10:13:03;22.50;99.90
18839;DHT22;9548;56.920;14.804;2022-08-23T10:15:42;22.40;99.90
18839;DHT22;9548;56.920;14.804;2022-08-23T10:18:21;22.60;99.90
18839;DHT22;9548;56.920;14.804;2022-08-23T10:20:54;22.40;99.90
18839;DHT22;9548;56.920;14.804;2022-08-23T10:23:31;22.50;99.90
18839;DHT22;9548;56.920;14.804;2022-08-23T10:26:01;22.60;99.90
18839;DHT22;9548;56.920;14.804;2022-08-23T10:28:37;22.40;99.90
18839;DHT22;9548;56.920;14.804;2022-08-23T10:31:33;22.20;99.90
18839;DHT22;9548;56.920;14.804;2022-08-23T10:34:19;22.10;99.90
18839;DHT22;9548;56.920;14.804;2022-08-23T10:36:57;22.00;99.90
18839;DHT22;9548;56.920;14.804;2022-08-23T10:39:28;21.90;99.90
18839;DHT22;9548;56.920;14.804;2022-08-23T10:42:00;22.00;99.90
18839;DHT22;9548;56.920;14.804;2022-08-23T10:44:34;22.00;99.90
18839;DHT22;9548;56.920;14.804;2022-08-23T10:47:17;22.20;99.90
18839;DHT22;9548;56.920;14.804;2022-08-23T10:49:50;22.20;99.90
18839;DHT22;9548;56.920;14.804;2022-08-23T10:52:21;22.30;99.90
18839;DHT22;9548;56.920;14.804;2022-08-23T10:54:53;22.40;99.90
18839;DHT22;9548;56.920;14.804;2022-08-23T10:57:34;22.20;99.90
18839;DHT22;9548;56.920;14.804;2022-08-23T11:00:05;22.20;99.90
18839;DHT22;9548;56.920;14.804;2022-08-23T11:02:42;22.30;99.90
18839;DHT22;9548;56.920;14.804;2022-08-23T11:05:19;22.40;99.90
18839;DHT22;9548;56.920;14.804;2022-08-23T11:07:57;22.20;99.90
18839;DHT22;9548;56.920;14.804;2022-08-23T11:10:30;22.20;99.90
18839;DHT22;9548;56.920;14.804;2022-08-23T11:13:00;22.10;99.90
18839;DHT22;9548;56.920;14.804;2022-08-23T11:15:37;22.00;99.90
18839;DHT22;9548;56.920;14.804;2022-08-23T11:18:10;22.00;99.90
18839;DHT22;9548;56.920;14.804;2022-08-23T11:21:02;22.10;99.90
18839;DHT22;9548;56.920;14.804;2022-08-23T11:23:44;22.20;99.90
18839;DHT22;9548;56.920;14.804;2022-08-23T11:29:35;22.50;99.90
18839;DHT22;9548;56.920;14.804;2022-08-23T11:35:32;22.90;99.90
18839;DHT22;9548;56.920;14.804;2022-08-23T11:38:03;23.00;99.90
18839;DHT22;9548;56.920;14.804;2022-08-23T11:40:56;23.00;99.90
18839;DHT22;9548;56.920;14.804;2022-08-23T11:43:27;22.80;99.90
18839;DHT22;9548;56.920;14.804;2022-08-23T11:46:15;22.70;99.90
18839;DHT22;9548;56.920;14.804;2022-08-23T11:48:48;22.60;99.90
18839;DHT22;9548;56.920;14.804;2022-08-23T11:51:25;22.60;99.90
18839;DHT22;9548;56.920;14.804;2022-08-23T11:54:07;22.50;99.90
18839;DHT22;9548;56.920;14.804;2022-08-23T11:56:53;22.50;99.90
18839;DHT22;9548;56.920;14.804;2022-08-23T11:59:45;22.50;99.90
18839;DHT22;9548;56.920;14.804;2022-08-23T12:02:43;22.50;99.90
18839;DHT22;9548;56.920;14.804;2022-08-23T12:05:23;22.50;99.90
18839;DHT22;9548;56.920;14.804;2022-08-23T12:11:07;22.80;99.90
18839;DHT22;9548;56.920;14.804;2022-08-23T12:13:56;22.80;99.90
18839;DHT22;9548;56.920;14.804;2022-08-23T12:16:34;23.00;99.90
18839;DHT22;9548;56.920;14.804;2022-08-23T12:19:26;23.00;99.90
18839;DHT22;9548;56.920;14.804;2022-08-23T12:21:55;23.10;99.90
18839;DHT22;9548;56.920;14.804;2022-08-23T12:24:27;23.10;99.90
18839;DHT22;9548;56.920;14.804;2022-08-23T12:27:05;23.20;99.90
18839;DHT22;9548;56.920;14.804;2022-08-23T12:29:46;23.20;99.90
18839;DHT22;9548;56.920;14.804;2022-08-23T12:32:18;23.00;99.90
18839;DHT22;9548;56.920;14.804;2022-08-23T12:34:59;22.90;99.90
18839;DHT22;9548;56.920;14.804;2022-08-23T12:37:36;22.80;99.90
18839;DHT22;9548;56.920;14.804;2022-08-23T12:40:07;22.50;99.90
18839;DHT22;9548;56.920;14.804;2022-08-23T12:42:39;22.40;99.90
18839;DHT22;9548;56.920;14.804;2022-08-23T12:45:11;22.50;99.90
18839;DHT22;9548;56.920;14.804;2022-08-23T12:47:40;22.40;99.90
18839;DHT22;9548;56.920;14.804;2022-08-23T12:50:19;22.40;99.90
18839;DHT22;9548;56.920;14.804;2022-08-23T12:52:56;22.40;99.90
18839;DHT22;9548;56.920;14.804;2022-08-23T12:55:30;22.40;99.90
18839;DHT22;9548;56.920;14.804;2022-08-23T12:57:59;22.40;99.90
18839;DHT22;9548;56.920;14.804;2022-08-23T13:00:30;22.40;99.90
18839;DHT22;9548;56.920;14.804;2022-08-23T13:03:02;22.70;99.90
18839;DHT22;9548;56.920;14.804;2022-08-23T13:05:35;23.10;99.90
18839;DHT22;9548;56.920;14.804;2022-08-23T13:08:07;23.60;99.90
18839;DHT22;9548;56.920;14.804;2022-08-23T13:10:37;24.20;99.90
18839;DHT22;9548;56.920;14.804;2022-08-23T13:13:08;24.70;99.90
18839;DHT22;9548;56.920;14.804;2022-08-23T13:15:42;25.70;99.90
18839;DHT22;9548;56.920;14.804;2022-08-23T13:18:09;27.00;99.90
18839;DHT22;9548;56.920;14.804;2022-08-23T13:20:36;28.90;99.90
18839;DHT22;9548;56.920;14.804;2022-08-23T13:23:06;31.50;99.90
18839;DHT22;9548;56.920;14.804;2022-08-23T13:25:36;33.90;96.30
18839;DHT22;9548;56.920;14.804;2022-08-23T13:28:22;35.20;93.50
18839;DHT22;9548;56.920;14.804;2022-08-23T13:30:58;36.70;90.80
18839;DHT22;9548;56.920;14.804;2022-08-23T13:33:25;38.20;86.50
18839;DHT22;9548;56.920;14.804;2022-08-23T13:36:06;39.00;81.40
18839;DHT22;9548;56.920;14.804;2022-08-23T13:38:34;39.30;76.20
18839;DHT22;9548;56.920;14.804;2022-08-23T13:41:04;38.60;78.30
18839;DHT22;9548;56.920;14.804;2022-08-23T13:43:36;38.90;78.00
18839;DHT22;9548;56.920;14.804;2022-08-23T13:46:14;39.50;74.70
18839;DHT22;9548;56.920;14.804;2022-08-23T13:48:45;39.80;72.80
18839;DHT22;9548;56.920;14.804;2022-08-23T13:51:25;39.50;72.20
18839;DHT22;9548;56.920;14.804;2022-08-23T13:53:54;38.90;72.80
18839;DHT22;9548;56.920;14.804;2022-08-23T13:56:22;39.20;71.90
18839;DHT22;9548;56.920;14.804;2022-08-23T13:58:55;39.90;70.00
18839;DHT22;9548;56.920;14.804;2022-08-23T14:01:23;39.70;69.30
18839;DHT22;9548;56.920;14.804;2022-08-23T14:03:51;39.70;71.10
18839;DHT22;9548;56.920;14.804;2022-08-23T14:06:18;39.40;68.90
18839;DHT22;9548;56.920;14.804;2022-08-23T14:08:45;38.50;69.70
18839;DHT22;9548;56.920;14.804;2022-08-23T14:11:13;38.00;71.20
18839;DHT22;9548;56.920;14.804;2022-08-23T14:13:43;37.70;71.80
18839;DHT22;9548;56.920;14.804;2022-08-23T14:16:15;38.00;72.50
18839;DHT22;9548;56.920;14.804;2022-08-23T14:18:43;37.90;70.70
18839;DHT22;9548;56.920;14.804;2022-08-23T14:21:10;37.70;70.30
18839;DHT22;9548;56.920;14.804;2022-08-23T14:23:37;37.00;70.60
18839;DHT22;9548;56.920;14.804;2022-08-23T14:26:05;36.60;72.50
18839;DHT22;9548;56.920;14.804;2022-08-23T14:28:32;36.40;73.80
18839;DHT22;9548;56.920;14.804;2022-08-23T14:30:59;35.90;72.90
18839;DHT22;9548;56.920;14.804;2022-08-23T14:33:27;35.10;75.90
18839;DHT22;9548;56.920;14.804;2022-08-23T14:35:54;35.10;75.00
18839;DHT22;9548;56.920;14.804;2022-08-23T14:38:21;35.10;74.00
18839;DHT22;9548;56.920;14.804;2022-08-23T14:40:51;36.20;73.70
18839;DHT22;9548;56.920;14.804;2022-08-23T14:43:18;37.90;70.40
18839;DHT22;9548;56.920;14.804;2022-08-23T14:45:47;38.90;67.90
18839;DHT22;9548;56.920;14.804;2022-08-23T14:48:14;39.90;66.70
18839;DHT22;9548;56.920;14.804;2022-08-23T14:50:43;41.00;63.80
18839;DHT22;9548;56.920;14.804;2022-08-23T14:53:11;41.90;62.90
18839;DHT22;9548;56.920;14.804;2022-08-23T14:55:39;41.90;60.90
18839;DHT22;9548;56.920;14.804;2022-08-23T14:58:06;42.40;60.20
18839;DHT22;9548;56.920;14.804;2022-08-23T15:00:34;42.50;59.30
18839;DHT22;9548;56.920;14.804;2022-08-23T15:03:02;42.50;58.90
18839;DHT22;9548;56.920;14.804;2022-08-23T15:05:30;42.60;58.60
18839;DHT22;9548;56.920;14.804;2022-08-23T15:07:58;42.30;58.50
18839;DHT22;9548;56.920;14.804;2022-08-23T15:10:25;41.90;58.40
18839;DHT22;9548;56.920;14.804;2022-08-23T15:12:52;41.70;58.40
18839;DHT22;9548;56.920;14.804;2022-08-23T15:15:20;41.30;58.60
18839;DHT22;9548;56.920;14.804;2022-08-23T15:17:49;40.90;58.70
18839;DHT22;9548;56.920;14.804;2022-08-23T15:20:17;40.30;59.10
18839;DHT22;9548;56.920;14.804;2022-08-23T15:22:44;39.70;59.80
18839;DHT22;9548;56.920;14.804;2022-08-23T15:25:14;39.30;59.80
18839;DHT22;9548;56.920;14.804;2022-08-23T15:27:42;38.80;60.70
18839;DHT22;9548;56.920;14.804;2022-08-23T15:30:11;38.40;61.30
18839;DHT22;9548;56.920;14.804;2022-08-23T15:32:38;38.10;61.10
18839;DHT22;9548;56.920;14.804;2022-08-23T15:35:07;37.60;62.40
18839;DHT22;9548;56.920;14.804;2022-08-23T15:37:35;37.60;62.00
18839;DHT22;9548;56.920;14.804;2022-08-23T15:40:04;37.50;61.70
18839;DHT22;9548;56.920;14.804;2022-08-23T15:42:33;37.70;61.20
18839;DHT22;9548;56.920;14.804;2022-08-23T15:45:00;38.00;62.20
18839;DHT22;9548;56.920;14.804;2022-08-23T15:47:28;38.50;60.30
18839;DHT22;9548;56.920;14.804;2022-08-23T15:49:57;38.90;59.10
18839;DHT22;9548;56.920;14.804;2022-08-23T15:52:24;39.30;58.70
18839;DHT22;9548;56.920;14.804;2022-08-23T15:54:51;39.50;58.40
18839;DHT22;9548;56.920;14.804;2022-08-23T15:57:21;39.60;57.60
18839;DHT22;9548;56.920;14.804;2022-08-23T15:59:50;39.90;57.90
18839;DHT22;9548;56.920;14.804;2022-08-23T16:02:17;40.30;57.80